Time;durP1;ratioP1;P1;durP2;ratioP2;P2;SDS_P1;SDS_P2;PMS_P1;PMS_P2;Temp;Humidity;BMP_temperature;BMP_pressure;BME280_temperature;BME280_humidity;BME280_pressure;Samples;Min_cycle;Max_cycle;Signal;HPM_P1;HPM_P2
2021/07/02 00:01:33;;;;;;;20.85;10.53;;;;;;;21.36;100.00;100345.53;1515727;93;21179;-91
2021/07/02 00:04:06;;;;;;;16.17;9.68;;;;;;;21.31;100.00;100342.65;1529452;93;21599;-92
2021/07/02 00:06:46;;;;;;;17.80;10.32;;;;;;;21.25;100.00;100338.13;1456515;96;21655;-93
2021/07/02 00:09:29;;;;;;;;;;;;;;;;;;;;;
2021/07/02 00:12:02;;;;;;;;;;;;;;;;;;;;;
2021/07/02 00:14:40;;;;;;;;;;;;;;;;;;;;;
2021/07/02 00:17:15;;;;;;;;;;;;;;;;;;;;;
2021/07/02 00:19:55;;;;;;;;;;;;;;;;;;;;;
2021/07/02 00:22:27;;;;;;;;;;;;;;;;;;;;;
2021/07/02 00:25:06;;;;;;;;;;;;;;;;;;;;;
2021/07/02 00:27:32;;;;;;;14.50;9.55;;;;;;;21.17;100.00;100321.87;1328919;105;21287;-91
2021/07/02 00:30:23;;;;;;;;;;;;;;;;;;;;;
2021/07/02 00:32:59;;;;;;;;;;;;;;;;;;;;;
2021/07/02 00:35:47;;;;;;;;;;;;;;;;;;;;;
2021/07/02 00:38:16;;;;;;;;;;;;;;;;;;;;;
2021/07/02 00:40:54;;;;;;;13.98;10.30;;;;;;;21.13;100.00;100306.08;1207524;116;21781;-93
2021/07/02 00:43:41;;;;;;;;;;;;;;;;;;;;;
2021/07/02 00:46:13;;;;;;;15.40;9.83;;;;;;;21.10;100.00;100311.74;1209668;113;21587;-92
2021/07/02 00:48:51;;;;;;;15.70;9.80;;;;;;;21.08;100.00;100313.75;1274989;110;21185;-93
2021/07/02 00:51:31;;;;;;;;;;;;;;;;;;;;;
2021/07/02 00:53:49;;;;;;;18.07;11.08;;;;;;;21.05;100.00;100313.64;1375770;101;21616;-93
2021/07/02 00:56:20;;;;;;;16.00;10.38;;;;;;;21.05;100.00;100322.91;1415534;99;21234;-93
2021/07/02 00:58:53;;;;;;;13.40;10.00;;;;;;;21.00;100.00;100321.34;1412646;100;21062;-94
2021/07/02 01:01:26;;;;;;;12.93;9.98;;;;;;;20.96;100.00;100328.84;1379730;98;21681;-91
2021/07/02 01:04:07;;;;;;;;;;;;;;;;;;;;;
2021/07/02 01:06:33;;;;;;;15.03;9.90;;;;;;;20.87;100.00;100327.86;1349133;104;21297;-92
2021/07/02 01:09:03;;;;;;;13.98;10.08;;;;;;;20.83;100.00;100325.27;1364775;102;21601;-95
2021/07/02 01:11:32;;;;;;;17.00;10.58;;;;;;;20.79;100.00;100326.15;1451241;96;21092;-91
2021/07/02 01:14:13;;;;;;;13.70;9.55;;;;;;;20.75;100.00;100330.20;1439910;98;21530;-92
2021/07/02 01:16:40;;;;;;;19.15;10.55;;;;;;;20.70;100.00;100332.05;1446586;96;21623;-96
2021/07/02 01:19:09;;;;;;;17.23;10.23;;;;;;;20.64;100.00;100324.36;1466636;96;21145;-93
2021/07/02 01:21:37;;;;;;;15.72;10.80;;;;;;;20.59;100.00;100329.38;1466707;96;21097;-92
2021/07/02 01:24:06;;;;;;;15.68;10.80;;;;;;;20.54;100.00;100325.17;1498626;95;21095;-91
2021/07/02 01:26:33;;;;;;;16.20;10.75;;;;;;;20.50;100.00;100325.25;1499415;94;21107;-94
2021/07/02 01:29:04;;;;;;;17.27;10.08;;;;;;;20.47;100.00;100328.25;1480140;96;21653;-93
2021/07/02 01:31:36;;;;;;;15.50;11.05;;;;;;;20.44;100.00;100324.16;1510769;93;21285;-93
2021/07/02 01:34:02;;;;;;;15.55;11.48;;;;;;;20.41;100.00;100320.56;1522510;88;21198;-91
2021/07/02 01:36:31;;;;;;;13.90;11.90;;;;;;;20.39;100.00;100317.80;1572780;88;21108;-93
2021/07/02 01:39:00;;;;;;;15.63;11.00;;;;;;;20.39;100.00;100319.11;1571576;89;21069;-92
2021/07/02 01:41:30;;;;;;;16.45;11.70;;;;;;;20.35;100.00;100318.67;1591460;88;21081;-94
2021/07/02 01:43:58;;;;;;;17.00;10.85;;;;;;;20.32;100.00;100310.62;1591530;88;21220;-95
2021/07/02 01:46:27;;;;;;;15.40;11.83;;;;;;;20.28;100.00;100305.37;1591393;88;21492;-91
2021/07/02 01:48:54;;;;;;;17.25;11.28;;;;;;;20.27;100.00;100303.73;1572718;90;21025;-92
2021/07/02 01:51:23;;;;;;;18.37;11.68;;;;;;;20.27;100.00;100314.82;1571802;88;20994;-92
2021/07/02 01:53:50;;;;;;;17.70;10.98;;;;;;;20.26;100.00;100323.27;1591615;88;21121;-93
2021/07/02 01:56:19;;;;;;;17.52;11.75;;;;;;;20.27;100.00;100324.07;1571772;90;22193;-91
2021/07/02 01:58:51;;;;;;;17.30;11.07;;;;;;;20.24;100.00;100322.63;1592905;88;21005;-91
2021/07/02 02:01:23;;;;;;;17.15;11.18;;;;;;;20.21;100.00;100319.53;1629554;85;21760;-91
2021/07/02 02:03:52;;;;;;;18.27;11.78;;;;;;;20.19;100.00;100322.34;1630055;86;21011;-93
2021/07/02 02:06:20;;;;;;;20.32;12.03;;;;;;;20.18;100.00;100324.18;1648944;85;21479;-92
2021/07/02 02:08:48;;;;;;;19.07;13.03;;;;;;;20.18;100.00;100321.54;1648810;85;20965;-93
2021/07/02 02:11:16;;;;;;;20.62;13.93;;;;;;;20.18;100.00;100320.22;1648781;85;21071;-93
2021/07/02 02:13:45;;;;;;;16.30;13.50;;;;;;;20.20;100.00;100325.83;1648857;85;21155;-91
2021/07/02 02:16:14;;;;;;;16.17;14.10;;;;;;;20.22;100.00;100324.63;1648904;85;21151;-91
2021/07/02 02:18:44;;;;;;;19.73;15.08;;;;;;;20.25;100.00;100330.04;1649014;85;21075;-92
2021/07/02 02:21:13;;;;;;;25.40;16.97;;;;;;;20.25;100.00;100332.69;1649134;85;21036;-93
2021/07/02 02:23:44;;;;;;;22.52;16.60;;;;;;;20.26;100.00;100334.33;1668786;85;21174;-91
2021/07/02 02:26:14;;;;;;;25.40;17.32;;;;;;;20.26;100.00;100330.36;1671945;85;21104;-93
2021/07/02 02:28:41;;;;;;;21.77;16.80;;;;;;;20.24;100.00;100329.72;1648981;85;21629;-91
2021/07/02 02:31:08;;;;;;;19.17;15.70;;;;;;;20.22;100.00;100323.82;1649010;85;22271;-91
2021/07/02 02:33:37;;;;;;;21.52;17.15;;;;;;;20.23;100.00;100332.08;1648947;85;21055;-93
2021/07/02 02:36:06;;;;;;;18.65;16.30;;;;;;;20.23;100.00;100335.52;1648897;85;21092;-92
2021/07/02 02:38:34;;;;;;;24.85;17.62;;;;;;;20.23;100.00;100336.84;1653170;84;21050;-94
2021/07/02 02:41:01;;;;;;;22.10;17.23;;;;;;;20.24;100.00;100336.33;1655916;85;21107;-92
2021/07/02 02:43:28;;;;;;;23.35;18.07;;;;;;;20.24;100.00;100329.72;1655873;85;21524;-91
2021/07/02 02:45:56;;;;;;;24.57;18.82;;;;;;;20.27;100.00;100331.48;1655589;84;21071;-92
2021/07/02 02:48:24;;;;;;;25.32;18.27;;;;;;;20.33;100.00;100333.89;1655949;85;21102;-91
2021/07/02 02:50:52;;;;;;;21.30;17.98;;;;;;;20.39;100.00;100327.85;1655854;85;21028;-93
2021/07/02 02:53:22;;;;;;;25.88;17.15;;;;;;;20.47;100.00;100325.61;1655907;85;20992;-93
2021/07/02 02:55:49;;;;;;;20.37;18.20;;;;;;;20.54;100.00;100326.48;1655835;85;21206;-91
2021/07/02 02:58:18;;;;;;;23.92;17.77;;;;;;;20.62;100.00;100329.53;1678685;84;21068;-92
2021/07/02 03:00:45;;;;;;;21.30;17.07;;;;;;;20.70;100.00;100332.55;1655658;84;21048;-93
2021/07/02 03:03:13;;;;;;;22.22;18.05;;;;;;;20.79;100.00;100329.59;1656109;84;21119;-91
2021/07/02 03:05:40;;;;;;;20.92;18.10;;;;;;;20.89;100.00;100329.79;1662031;83;21534;-89
2021/07/02 03:08:07;;;;;;;21.02;18.82;;;;;;;20.97;100.00;100327.02;1705667;83;21081;-93
2021/07/02 03:10:40;;;;;;;23.40;18.48;;;;;;;21.04;100.00;100324.42;1703003;83;21136;-93
2021/07/02 03:13:12;;;;;;;24.47;18.73;;;;;;;21.09;100.00;100324.17;1677299;84;21573;-91
2021/07/02 03:15:40;;;;;;;22.05;19.27;;;;;;;21.16;100.00;100333.98;1636987;83;21078;-91
2021/07/02 03:18:09;;;;;;;20.77;18.87;;;;;;;21.20;100.00;100337.88;1707172;83;21055;-92
2021/07/02 03:20:38;;;;;;;20.97;18.87;;;;;;;21.23;100.00;100329.04;1675809;83;21137;-91
2021/07/02 03:23:08;;;;;;;28.17;19.12;;;;;;;21.27;100.00;100328.17;1678417;83;20968;-93
2021/07/02 03:25:36;;;;;;;19.92;17.90;;;;;;;21.34;100.00;100325.06;1656633;84;21086;-91
2021/07/02 03:28:04;;;;;;;23.18;19.00;;;;;;;21.40;100.00;100323.45;1682718;83;21047;-91
2021/07/02 03:30:31;;;;;;;20.05;17.92;;;;;;;21.46;100.00;100327.16;1683437;83;21700;-91
2021/07/02 03:33:00;;;;;;;22.77;17.77;;;;;;;21.52;100.00;100321.08;1705760;83;21099;-89
2021/07/02 03:35:32;;;;;;;21.48;18.65;;;;;;;21.59;100.00;100321.99;1687569;83;21688;-88
2021/07/02 03:37:59;;;;;;;23.67;18.50;;;;;;;21.65;100.00;100323.02;1702840;82;21513;-89
2021/07/02 03:40:38;;;;;;;;;;;;;;;;;;;;;
2021/07/02 03:43:02;;;;;;;19.50;17.55;;;;;;;21.76;100.00;100329.09;1701922;82;21546;-92
2021/07/02 03:45:30;;;;;;;23.50;18.32;;;;;;;21.83;100.00;100333.92;1680156;83;21422;-89
2021/07/02 03:47:59;;;;;;;28.45;17.17;;;;;;;21.89;100.00;100327.83;1665670;85;21082;-89
2021/07/02 03:50:28;;;;;;;20.92;17.85;;;;;;;21.98;100.00;100329.82;1668369;84;21523;-90
2021/07/02 03:52:56;;;;;;;20.80;17.90;;;;;;;22.05;100.00;100328.02;1665795;84;21098;-91
2021/07/02 03:55:25;;;;;;;24.60;18.95;;;;;;;22.14;100.00;100327.31;1692552;84;21647;-88
2021/07/02 03:57:54;;;;;;;21.57;19.42;;;;;;;22.21;100.00;100323.38;1686707;84;21187;-91
2021/07/02 04:00:21;;;;;;;21.50;19.17;;;;;;;22.33;100.00;100327.58;1667887;84;21059;-91
2021/07/02 04:02:50;;;;;;;22.93;20.57;;;;;;;22.44;100.00;100319.58;1691347;84;21038;-91
2021/07/02 04:05:17;;;;;;;25.37;19.60;;;;;;;22.52;100.00;100312.75;1670702;84;21516;-89
2021/07/02 04:07:44;;;;;;;23.50;20.75;;;;;;;22.61;100.00;100312.88;1668487;84;21132;-90
2021/07/02 04:10:11;;;;;;;27.32;21.73;;;;;;;22.73;100.00;100313.58;1693376;84;21142;-88
2021/07/02 04:12:40;;;;;;;24.00;21.50;;;;;;;22.84;100.00;100303.70;1670397;84;37710;-89
2021/07/02 04:15:10;;;;;;;23.83;21.33;;;;;;;22.92;100.00;100310.12;1668795;84;21096;-91
2021/07/02 04:17:39;;;;;;;23.57;21.20;;;;;;;22.99;100.00;100311.47;1694182;83;21071;-91
2021/07/02 04:20:09;;;;;;;26.37;21.85;;;;;;;23.02;100.00;100307.58;1685317;83;21643;-89
2021/07/02 04:22:40;;;;;;;25.30;22.87;;;;;;;23.03;100.00;100317.19;1685383;83;21033;-91
2021/07/02 04:25:11;;;;;;;24.92;22.65;;;;;;;23.02;100.00;100323.52;1665284;85;21137;-91
2021/07/02 04:27:42;;;;;;;27.25;24.45;;;;;;;23.00;100.00;100332.49;1708872;82;21544;-90
2021/07/02 04:30:11;;;;;;;25.88;23.42;;;;;;;22.98;100.00;100335.05;1685404;83;21163;-89
2021/07/02 04:32:41;;;;;;;25.97;22.77;;;;;;;22.96;100.00;100345.85;1643146;86;21115;-91
2021/07/02 04:35:11;;;;;;;24.82;21.12;;;;;;;23.00;100.00;100350.24;1691171;84;21046;-89
2021/07/02 04:37:41;;;;;;;24.10;21.57;;;;;;;23.05;100.00;100346.48;1669015;83;21141;-89
2021/07/02 04:40:12;;;;;;;22.75;20.37;;;;;;;23.13;100.00;100352.92;1685148;83;21033;-88
2021/07/02 04:42:41;;;;;;;25.23;21.02;;;;;;;23.23;100.00;100351.20;1706044;82;22268;-89
2021/07/02 04:45:09;;;;;;;21.00;18.85;;;;;;;23.29;100.00;100350.37;1659240;85;21144;-88
2021/07/02 04:47:36;;;;;;;21.15;18.80;;;;;;;23.37;100.00;100351.17;1663072;84;21090;-89
2021/07/02 04:50:06;;;;;;;19.87;17.90;;;;;;;23.44;100.00;100353.30;1685500;83;21810;-91
2021/07/02 04:52:35;;;;;;;24.00;18.42;;;;;;;23.52;100.00;100354.94;1679095;83;21073;-89
2021/07/02 04:55:03;;;;;;;20.02;18.12;;;;;;;23.59;100.00;100352.59;1684631;83;21037;-89
2021/07/02 04:57:33;;;;;;;25.82;19.05;;;;;;;23.68;100.00;100356.32;1679296;83;20962;-89
2021/07/02 05:00:04;;;;;;;24.12;18.35;;;;;;;23.72;100.00;100350.91;1682528;85;21665;-91
2021/07/02 05:02:32;;;;;;;22.60;18.77;;;;;;;23.72;100.00;100344.27;1681383;83;20971;-91
2021/07/02 05:05:01;;;;;;;20.65;18.48;;;;;;;23.73;100.00;100346.70;1709147;82;21041;-90
2021/07/02 05:07:30;;;;;;;22.65;17.55;;;;;;;23.78;100.00;100343.42;1657646;85;21039;-89
2021/07/02 05:09:59;;;;;;;20.40;16.73;;;;;;;23.83;100.00;100340.97;1685665;82;21121;-89
2021/07/02 05:12:31;;;;;;;18.42;16.50;;;;;;;23.92;100.00;100339.68;1709128;82;21540;-90
2021/07/02 05:14:59;;;;;;;;;;;;;;;24.00;100.00;100337.84;1687230;83;21080;-89
2021/07/02 05:17:27;;;;;;;22.42;16.65;;;;;;;24.06;100.00;100341.01;1696725;82;20278;-90
2021/07/02 05:19:54;;;;;;;19.07;15.23;;;;;;;24.13;100.00;100343.13;1659982;85;21091;-90
2021/07/02 05:22:21;;;;;;;17.48;15.30;;;;;;;24.19;100.00;100338.28;1675900;83;21509;-91
2021/07/02 05:24:50;;;;;;;17.90;14.60;;;;;;;24.25;100.00;100352.05;1709566;81;21094;-89
2021/07/02 05:27:17;;;;;;;20.88;14.68;;;;;;;24.30;100.00;100342.63;1684500;84;21129;-90
2021/07/02 05:29:46;;;;;;;25.62;16.32;;;;;;;24.34;100.00;100341.16;1681177;83;21149;-90
2021/07/02 05:32:14;;;;;;;19.82;15.15;;;;;;;24.39;100.00;100342.69;1684329;83;21075;-92
2021/07/02 05:34:42;;;;;;;25.82;16.40;;;;;;;24.43;100.00;100345.73;1684293;83;21098;-90
2021/07/02 05:37:09;;;;;;;27.25;16.32;;;;;;;24.48;100.00;100346.70;1684390;83;21146;-88
2021/07/02 05:39:36;;;;;;;23.67;17.40;;;;;;;24.52;100.00;100340.44;1681474;83;21020;-91
2021/07/02 05:42:08;;;;;;;23.65;15.50;;;;;;;24.56;100.00;100341.13;1657646;85;21149;-90
2021/07/02 05:44:35;;;;;;;23.10;15.38;;;;;;;24.62;100.00;100338.66;1681205;84;21131;-90
2021/07/02 05:47:02;;;;;;;22.93;15.65;;;;;;;24.69;100.00;100342.91;1706536;83;21004;-91
2021/07/02 05:49:29;;;;;;;25.50;14.65;;;;;;;24.75;100.00;100343.91;1707470;83;21143;-91
2021/07/02 05:51:56;;;;;;;17.67;12.63;;;;;;;24.82;100.00;100344.66;1678810;84;22113;-89
2021/07/02 05:54:23;;;;;;;25.05;13.25;;;;;;;24.93;100.00;100358.32;1655914;85;21115;-91
2021/07/02 05:56:51;;;;;;;17.42;11.20;;;;;;;25.04;100.00;100355.77;1674386;83;21075;-91
2021/07/02 05:59:18;;;;;;;22.45;13.50;;;;;;;25.13;100.00;100356.30;1662370;83;21155;-89
2021/07/02 06:01:48;;;;;;;24.55;13.90;;;;;;;25.22;100.00;100354.69;1683495;83;21134;-91
2021/07/02 06:04:16;;;;;;;19.60;13.68;;;;;;;25.27;100.00;100356.20;1706663;83;21063;-91
2021/07/02 06:06:47;;;;;;;25.45;15.23;;;;;;;25.31;100.00;100347.55;1683613;84;21589;-92
2021/07/02 06:09:15;;;;;;;24.63;16.62;;;;;;;25.36;100.00;100346.36;1658778;84;21021;-90
2021/07/02 06:11:45;;;;;;;21.48;14.98;;;;;;;25.46;100.00;100351.73;1631681;85;21141;-92
2021/07/02 06:14:11;;;;;;;16.10;12.93;;;;;;;25.49;100.00;100349.44;1621664;87;21198;-89
2021/07/02 06:16:40;;;;;;;17.90;12.37;;;;;;;25.55;100.00;100352.25;1683549;85;21419;-91
2021/07/02 06:19:07;;;;;;;13.72;12.15;;;;;;;25.62;100.00;100347.16;1661894;85;22290;-91
2021/07/02 06:21:36;;;;;;;39.92;13.50;;;;;;;25.65;100.00;100345.89;1685351;84;21100;-90
2021/07/02 06:24:07;;;;;;;15.55;11.57;;;;;;;25.66;100.00;100343.53;1668941;85;20991;-89
2021/07/02 06:26:38;;;;;;;13.28;10.85;;;;;;;25.67;100.00;100343.30;1682980;83;21167;-90
2021/07/02 06:29:07;;;;;;;21.93;10.95;;;;;;;25.69;100.00;100336.40;1656785;85;21215;-91
2021/07/02 06:31:37;;;;;;;18.05;10.95;;;;;;;25.73;100.00;100335.44;1656200;85;21042;-91
2021/07/02 06:34:10;;;;;;;10.95;9.60;;;;;;;25.72;100.00;100335.97;1655336;85;21212;-91
2021/07/02 06:36:37;;;;;;;12.13;9.53;;;;;;;25.73;100.00;100337.59;1655902;85;21066;-91
2021/07/02 06:39:17;;;;;;;;;;;;;;;;;;;;;
2021/07/02 06:41:41;;;;;;;13.48;11.45;;;;;;;25.83;100.00;100323.73;1657497;85;21089;-89
2021/07/02 06:44:10;;;;;;;19.92;13.32;;;;;;;25.91;100.00;100322.09;1628959;86;21060;-92
2021/07/02 06:46:43;;;;;;;22.70;11.78;;;;;;;26.03;100.00;100330.69;1644462;86;21049;-91
2021/07/02 06:49:10;;;;;;;13.30;11.90;;;;;;;26.10;98.86;100324.77;1629561;86;21725;-90
2021/07/02 06:51:39;;;;;;;15.55;12.05;;;;;;;26.18;100.00;100326.30;1660179;84;21220;-90
2021/07/02 06:54:17;;;;;;;16.55;12.25;;;;;;;26.27;97.04;100319.10;1627887;86;21158;-91
2021/07/02 06:57:02;;;;;;;13.72;11.22;;;;;;;26.39;89.37;100321.80;1630626;86;21135;-90
2021/07/02 06:59:37;;;;;;;19.07;12.60;;;;;;;26.51;98.45;100318.34;1619913;86;21590;-91
2021/07/02 07:02:11;;;;;;;18.32;12.55;;;;;;;26.68;95.84;100319.84;1625328;86;21131;-92
2021/07/02 07:04:39;;;;;;;17.42;12.88;;;;;;;26.83;97.04;100319.41;1648558;84;21301;-91
2021/07/02 07:07:11;;;;;;;16.70;13.58;;;;;;;26.95;90.55;100318.91;1686644;82;21015;-90
2021/07/02 07:09:40;;;;;;;21.97;12.43;;;;;;;27.03;92.20;100306.55;1662813;84;21141;-90
2021/07/02 07:12:10;;;;;;;17.23;11.53;;;;;;;27.13;87.39;100304.61;1709011;83;22357;-90
2021/07/02 07:14:37;;;;;;;14.20;9.18;;;;;;;27.23;81.03;100303.52;1705338;83;21081;-90
2021/07/02 07:17:10;;;;;;;14.95;11.45;;;;;;;27.36;75.23;100314.45;1685643;83;21102;-88
2021/07/02 07:19:38;;;;;;;21.90;10.25;;;;;;;27.49;68.95;100306.73;1684811;84;21528;-89
2021/07/02 07:22:05;;;;;;;14.93;9.55;;;;;;;27.64;68.99;100316.14;1708397;83;21518;-89
2021/07/02 07:24:33;;;;;;;11.75;9.38;;;;;;;27.77;66.00;100315.87;1684963;84;20976;-89
2021/07/02 07:27:00;;;;;;;13.88;10.48;;;;;;;27.92;62.31;100314.03;1684774;84;20991;-89
2021/07/02 07:29:28;;;;;;;18.67;11.80;;;;;;;28.02;66.87;100310.19;1708497;83;21381;-89
2021/07/02 07:31:55;;;;;;;18.30;10.15;;;;;;;28.07;75.22;100308.16;1705691;83;21023;-90
2021/07/02 07:34:29;;;;;;;15.15;9.33;;;;;;;28.07;64.84;100312.72;1708416;83;20983;-89
2021/07/02 07:36:55;;;;;;;13.55;10.18;;;;;;;28.06;65.73;100313.22;1704776;83;20971;-89
2021/07/02 07:39:21;;;;;;;14.75;9.85;;;;;;;28.06;61.74;100316.41;1727299;81;21072;-91
2021/07/02 07:41:51;;;;;;;10.60;9.03;;;;;;;28.10;74.16;100321.08;1724737;80;22199;-90
2021/07/02 07:44:18;;;;;;;17.10;9.00;;;;;;;28.16;62.62;100317.97;1711590;82;21059;-91
2021/07/02 07:47:09;;;;;;;;;;;;;;;;;;;;;
2021/07/02 07:50:06;;;;;;;;;;;;;;;;;;;;;
2021/07/02 07:56:13;;;;;;;;;;;;;;;;;;;;;
2021/07/02 07:58:37;;;;;;;;;;;;;;;28.64;58.88;100313.95;1398907;99;21178;-89
2021/07/02 08:01:03;;;;;;;14.55;10.90;;;;;;;28.67;65.49;100306.48;1520140;87;20525;-91
2021/07/02 08:03:35;;;;;;;18.92;11.50;;;;;;;28.68;57.62;100307.61;1621919;87;21100;-90
2021/07/02 08:06:03;;;;;;;15.58;11.45;;;;;;;28.75;58.05;100308.80;1585481;87;21254;-88
2021/07/02 08:08:30;;;;;;;19.90;12.07;;;;;;;28.85;57.78;100312.98;1649203;85;21904;-89
2021/07/02 08:10:57;;;;;;;16.42;11.08;;;;;;;28.95;58.18;100313.65;1669837;84;21095;-90
2021/07/02 08:13:28;;;;;;;20.40;12.43;;;;;;;28.92;60.62;100312.27;1666273;84;21485;-88
2021/07/02 08:15:53;;;;;;;17.15;12.55;;;;;;;28.88;62.18;100312.50;1628314;85;21125;-89
2021/07/02 08:18:32;;;;;;;;;;;;;;;;;;;;;
2021/07/02 08:21:58;;;;;;;;;;;;;;;;;;;;;
2021/07/02 08:23:56;;;;;;;;;;;;;;;;;;;;;
2021/07/02 08:26:48;;;;;;;;;;;;;;;;;;;;;
2021/07/02 08:32:08;;;;;;;12.37;10.35;;;;;;;29.61;71.09;100304.08;1299122;108;21194;-89
2021/07/02 08:35:25;;;;;;;;;;;;;;;;;;;;;
2021/07/02 08:38:20;;;;;;;13.45;8.63;;;;;;;29.82;57.82;100296.56;1346151;104;21169;-89
2021/07/02 08:41:47;;;;;;;12.10;8.95;;;;;;;29.98;59.67;100300.23;1335595;105;21249;-90
2021/07/02 08:44:28;;;;;;;;;;;;;;;;;;;;;
2021/07/02 08:46:52;;;;;;;11.63;9.83;;;;;;;30.15;55.15;100300.16;1289706;106;21781;-89
2021/07/02 08:49:21;;;;;;;9.38;8.48;;;;;;;30.23;65.05;100299.41;1297710;98;21679;-89
2021/07/02 08:51:56;;;;;;;12.40;9.90;;;;;;;30.29;55.66;100296.50;1576845;89;20993;-88
2021/07/02 08:54:26;;;;;;;12.43;9.18;;;;;;;30.21;53.47;100297.78;1599514;88;21281;-89
2021/07/02 09:02:45;;;;;;;;;;;;;;;;;;;;;
2021/07/02 09:05:43;;;;;;;;;;;;;;;;;;;;;
2021/07/02 09:08:36;;;;;;;;;;;;;;;;;;;;;
2021/07/02 09:11:57;;;;;;;;;;;;;;;;;;;;;
2021/07/02 09:14:48;;;;;;;;;;;;;;;;;;;;;
2021/07/02 09:17:12;;;;;;;16.85;11.65;;;;;;;29.53;67.00;100288.71;1280390;109;22342;-89
2021/07/02 09:19:50;;;;;;;18.00;11.00;;;;;;;29.79;63.68;100281.50;1351720;103;21230;-91
2021/07/02 09:22:27;;;;;;;18.17;13.08;;;;;;;30.01;57.14;100282.30;1310899;107;21322;-89
2021/07/02 09:25:09;;;;;;;;;;;;;;;;;;;;;
2021/07/02 09:27:33;;;;;;;14.25;11.80;;;;;;;30.33;52.29;100280.69;1276252;107;21305;-88
2021/07/02 09:30:05;;;;;;;19.35;12.93;;;;;;;30.47;53.44;100275.19;1354026;101;21248;-91
2021/07/02 09:32:38;;;;;;;17.00;12.93;;;;;;;30.60;54.15;100277.17;1439121;94;21144;-89
2021/07/02 09:35:29;;;;;;;;;;;;;;;;;;;;;
2021/07/02 09:40:54;;;;;;;;;;;;;;;;;;;;;
2021/07/02 09:43:37;;;;;;;;;;;;;;;;;;;;;
2021/07/02 10:11:49;;;;;;;;;;;;;;;;;;;;;
2021/07/02 10:15:05;;;;;;;15.63;11.55;;;;;;;31.57;52.30;100258.61;1267826;109;21232;-89
2021/07/02 10:17:40;;;;;;;;;;;;;;;;;;;;;
2021/07/02 10:20:21;;;;;;;;;;;;;;;;;;;;;
2021/07/02 10:23:16;;;;;;;;;;;;;;;;;;;;;
2021/07/02 10:25:46;;;;;;;;;;;;;;;;;;;;;
2021/07/02 10:28:50;;;;;;;;;;;;;;;;;;;;;
2021/07/02 10:32:30;;;;;;;18.35;12.53;;;;;;;32.08;50.46;100235.86;1305481;106;21295;-90
2021/07/02 10:35:43;;;;;;;;;;;;;;;;;;;;;
2021/07/02 10:39:48;;;;;;;19.25;11.35;;;;;;;32.08;52.06;100226.95;1311113;108;21301;-88
2021/07/02 10:54:02;;;;;;;;;;;;;;;;;;;;;
2021/07/02 10:57:11;;;;;;;15.40;9.68;;;;;;;32.33;51.51;100231.55;1308231;107;21852;-90
2021/07/02 10:59:44;;;;;;;11.45;9.28;;;;;;;32.24;50.40;100225.11;1320802;104;26792;-88
2021/07/02 11:02:37;;;;;;;;;;;;;;;;;;;;;
2021/07/02 11:05:06;;;;;;;15.68;10.70;;;;;;;32.36;49.18;100224.28;1361448;103;21769;-87
2021/07/02 11:07:53;;;;;;;;;;;;;;;;;;;;;
2021/07/02 11:10:43;;;;;;;;;;;;;;;;;;;;;
2021/07/02 11:13:19;;;;;;;;;;;;;;;;;;;;;
2021/07/02 11:16:21;;;;;;;;;;;;;;;;;;;;;
2021/07/02 11:18:43;;;;;;;11.10;9.28;;;;;;;32.83;56.96;100221.52;1261151;112;21283;-89
2021/07/02 11:21:18;;;;;;;11.68;7.83;;;;;;;32.83;51.27;100220.99;1277729;110;21888;-88
2021/07/02 11:23:57;;;;;;;11.53;10.08;;;;;;;32.78;49.56;100212.91;1235156;113;21659;-92
2021/07/02 11:26:55;;;;;;;;;;;;;;;;;;;;;
2021/07/02 11:29:31;;;;;;;;;;;;;;;;;;;;;
2021/07/02 11:32:19;;;;;;;;;;;;;;;;;;;;;
2021/07/02 11:34:50;;;;;;;;;;;;;;;;;;;;;
2021/07/02 11:37:47;;;;;;;;;;;;;;;;;;;;;
2021/07/02 11:48:33;;;;;;;13.28;10.63;;;;;;;33.12;52.99;100196.06;1288928;108;21683;-89
2021/07/02 11:52:22;;;;;;;;;;;;;;;;;;;;;
2021/07/02 11:56:36;;;;;;;13.88;10.25;;;;;;;32.72;50.06;100203.19;1325011;106;21232;-90
2021/07/02 11:59:12;;;;;;;13.13;9.73;;;;;;;32.68;46.37;100195.41;1338268;106;21519;-90
2021/07/02 12:01:56;;;;;;;;;;;;;;;;;;;;;
2021/07/02 12:04:20;;;;;;;15.60;9.28;;;;;;;32.83;52.95;100195.91;1342210;104;21154;-90
2021/07/02 12:06:52;;;;;;;11.20;9.93;;;;;;;32.85;54.73;100193.20;1407311;97;21147;-89
2021/07/02 12:09:25;;;;;;;11.15;10.10;;;;;;;32.92;52.54;100186.73;1586208;86;21029;-92
2021/07/02 12:11:58;;;;;;;13.90;9.58;;;;;;;32.96;49.76;100186.43;1629745;86;20966;-88
2021/07/02 12:14:34;;;;;;;10.82;9.05;;;;;;;33.01;46.62;100185.08;1667669;83;21329;-91
2021/07/02 12:17:04;;;;;;;12.47;9.95;;;;;;;33.01;46.62;100185.08;1729642;81;21549;-89
2021/07/02 12:19:36;;;;;;;11.10;9.00;;;;;;;32.86;44.05;100190.77;1729908;81;20948;-90
2021/07/02 12:22:09;;;;;;;13.50;10.17;;;;;;;32.69;45.59;100189.73;1749392;79;20939;-91
2021/07/02 12:24:39;;;;;;;11.28;9.05;;;;;;;32.58;46.67;100194.88;1769856;79;21543;-94
2021/07/02 12:27:12;;;;;;;10.30;8.95;;;;;;;32.61;48.08;100189.50;1748799;80;21057;-92
2021/07/02 12:29:40;;;;;;;10.32;9.30;;;;;;;32.82;51.26;100196.47;1748189;81;20994;-92
2021/07/02 12:32:11;;;;;;;12.25;9.08;;;;;;;33.01;52.67;100194.52;1748143;80;21058;-91
2021/07/02 12:34:47;;;;;;;13.18;9.08;;;;;;;33.19;55.67;100194.42;1748467;80;21003;-91
2021/07/02 12:37:20;;;;;;;10.10;8.53;;;;;;;33.41;53.20;100199.44;1769933;79;21001;-90
2021/07/02 12:39:52;;;;;;;14.43;9.15;;;;;;;33.60;46.42;100189.34;1749731;80;21072;-89
2021/07/02 12:42:23;;;;;;;10.80;9.15;;;;;;;33.64;44.38;100192.56;1773802;79;21003;-90
2021/07/02 12:44:58;;;;;;;11.75;8.43;;;;;;;33.66;47.88;100186.88;1759699;79;21536;-88
2021/07/02 12:47:32;;;;;;;10.85;8.68;;;;;;;33.79;47.96;100188.95;1748619;80;21141;-90
2021/07/02 12:50:04;;;;;;;8.93;8.13;;;;;;;33.89;48.39;100188.09;1747942;80;21607;-90
2021/07/02 12:55:17;;;;;;;10.25;8.20;;;;;;;33.90;48.40;100184.83;1749827;80;21579;-90
2021/07/02 12:57:53;;;;;;;9.18;7.97;;;;;;;33.76;43.01;100177.91;1771435;79;21064;-90
2021/07/02 13:00:25;;;;;;;14.83;7.72;;;;;;;33.60;48.47;100180.73;1725217;79;20934;-89
2021/07/02 13:03:00;;;;;;;11.88;8.15;;;;;;;33.63;48.96;100178.80;1748880;80;21089;-88
2021/07/02 13:05:31;;;;;;;9.73;7.78;;;;;;;33.72;45.21;100179.02;1748433;80;20939;-91
2021/07/02 13:08:08;;;;;;;10.15;8.13;;;;;;;33.72;44.10;100172.80;1748036;81;21093;-87
2021/07/02 13:10:46;;;;;;;12.78;9.28;;;;;;;33.41;49.03;100162.23;1723497;81;21072;-91
2021/07/02 13:13:23;;;;;;;11.68;8.85;;;;;;;33.41;49.03;100162.23;1748904;80;21022;-88
2021/07/02 13:15:55;;;;;;;10.13;8.10;;;;;;;33.54;50.12;100166.19;1723031;79;21693;-87
2021/07/02 13:18:33;;;;;;;16.23;8.30;;;;;;;33.73;50.60;100155.52;1748321;81;21657;-86
2021/07/02 13:21:09;;;;;;;9.00;8.08;;;;;;;33.97;47.75;100161.83;1740976;81;21037;-88
2021/07/02 13:23:55;;;;;;;10.55;8.25;;;;;;;34.23;49.13;100156.72;1713617;82;21092;-85
2021/07/02 13:26:26;;;;;;;10.68;7.22;;;;;;;34.39;46.04;100155.50;1734881;80;21017;-91
2021/07/02 13:29:06;;;;;;;15.75;8.50;;;;;;;34.36;43.90;100153.89;1747420;80;21048;-88
2021/07/02 13:31:38;;;;;;;9.80;7.50;;;;;;;34.24;41.81;100149.70;1755460;79;21180;-89
2021/07/02 13:34:15;;;;;;;9.78;7.97;;;;;;;34.25;42.78;100144.53;1748550;80;21120;-89
2021/07/02 13:36:55;;;;;;;13.80;8.18;;;;;;;34.16;43.01;100139.52;1722948;81;21615;-92
2021/07/02 13:39:39;;;;;;;7.90;7.10;;;;;;;33.97;46.67;100140.22;1748553;81;29040;-92
2021/07/02 13:42:13;;;;;;;8.50;7.67;;;;;;;33.95;49.28;100140.25;1756215;80;20997;-88
2021/07/02 13:44:49;;;;;;;10.23;7.83;;;;;;;33.92;49.35;100141.63;1753229;81;22551;-88
2021/07/02 13:47:18;;;;;;;13.83;8.20;;;;;;;33.70;46.10;100131.78;1767264;79;21651;-87
2021/07/02 13:49:46;;;;;;;10.93;7.92;;;;;;;33.55;45.17;100124.08;1750261;80;21478;-91
2021/07/02 13:52:13;;;;;;;8.65;7.83;;;;;;;33.54;47.98;100121.11;1750192;80;21021;-87
2021/07/02 13:54:40;;;;;;;8.08;7.37;;;;;;;33.54;47.98;100121.11;1714020;82;21651;-88
2021/07/02 13:57:08;;;;;;;9.13;8.23;;;;;;;33.52;46.37;100123.83;1723257;81;21022;-92